Time;durP1;ratioP1;P1;durP2;ratioP2;P2;SDS_P1;SDS_P2;PMS_P1;PMS_P2;Temp;Humidity;BMP_temperature;BMP_pressure;BME280_temperature;BME280_humidity;BME280_pressure;Samples;Min_cycle;Max_cycle;Signal;HPM_P1;HPM_P2
2023/05/06 00:01:18;;;;;;;8.75;4.13;;;13.80;99.90;;;;;;4148106;28;20169;-93
2023/05/06 00:03:19;;;;;;;10.18;3.65;;;13.90;99.90;;;;;;4132027;28;20177;-92
2023/05/06 00:05:19;;;;;;;6.45;3.55;;;13.80;99.90;;;;;;4131835;28;20185;-93
2023/05/06 00:07:21;;;;;;;10.32;4.57;;;13.70;99.90;;;;;;4148017;28;20676;-92
2023/05/06 00:09:23;;;;;;;10.57;4.35;;;13.80;99.90;;;;;;4132096;28;20170;-92
2023/05/06 00:11:24;;;;;;;9.30;5.00;;;13.70;99.90;;;;;;4147981;28;20172;-94
2023/05/06 00:13:24;;;;;;;12.68;4.53;;;13.70;99.90;;;;;;4131950;28;20169;-93
2023/05/06 00:15:25;;;;;;;11.80;4.85;;;13.60;99.90;;;;;;4147953;28;20181;-94
2023/05/06 00:17:26;;;;;;;8.70;4.35;;;13.60;99.90;;;;;;4132110;28;20276;-93
2023/05/06 00:19:27;;;;;;;9.25;4.30;;;13.60;99.90;;;;;;4148018;28;20165;-93
2023/05/06 00:21:28;;;;;;;8.63;4.38;;;13.60;99.90;;;;;;4148370;28;20181;-93
2023/05/06 00:23:29;;;;;;;10.77;4.22;;;13.50;99.90;;;;;;4147847;28;20177;-93
2023/05/06 00:25:30;;;;;;;8.52;4.53;;;13.40;99.90;;;;;;4131841;28;20177;-93
2023/05/06 00:27:30;;;;;;;7.75;3.92;;;13.40;99.90;;;;;;4148049;28;20660;-94
2023/05/06 00:29:31;;;;;;;9.20;4.38;;;13.30;99.90;;;;;;4131757;28;20180;-94
2023/05/06 00:31:32;;;;;;;11.13;4.13;;;13.40;99.90;;;;;;4147860;28;20250;-95
2023/05/06 00:33:33;;;;;;;8.65;3.90;;;13.30;99.90;;;;;;4147845;28;20209;-93
2023/05/06 00:35:34;;;;;;;8.63;3.88;;;13.20;99.90;;;;;;4148048;28;20162;-93
2023/05/06 00:37:35;;;;;;;7.75;3.67;;;13.20;99.90;;;;;;4131628;28;20177;-93
2023/05/06 00:39:36;;;;;;;8.57;4.00;;;13.30;99.90;;;;;;4148113;28;20216;-93
2023/05/06 00:41:37;;;;;;;7.05;3.75;;;13.20;99.90;;;;;;4131614;28;20260;-92
2023/05/06 00:43:37;;;;;;;6.85;3.25;;;13.20;99.90;;;;;;4147897;28;20192;-93
2023/05/06 00:45:39;;;;;;;6.05;3.70;;;13.20;99.90;;;;;;4131498;28;20254;-93
2023/05/06 00:47:41;;;;;;;12.18;3.95;;;13.10;99.90;;;;;;4147776;28;20261;-92
2023/05/06 00:49:42;;;;;;;9.65;3.50;;;13.30;99.90;;;;;;4131691;28;20170;-92
2023/05/06 00:51:43;;;;;;;5.97;3.03;;;13.20;99.90;;;;;;4131742;28;20213;-93
2023/05/06 00:53:47;;;;;;;7.63;3.50;;;13.30;99.90;;;;;;4131839;28;20772;-92
2023/05/06 00:55:50;;;;;;;7.75;3.42;;;13.30;99.90;;;;;;4131723;28;20177;-94
2023/05/06 00:57:51;;;;;;;7.75;3.58;;;13.20;99.90;;;;;;4132044;28;20182;-92
2023/05/06 00:59:53;;;;;;;5.07;3.20;;;13.10;99.90;;;;;;4147645;28;20208;-93
2023/05/06 01:01:54;;;;;;;6.47;3.40;;;13.00;99.90;;;;;;4133757;28;20202;-92
2023/05/06 01:03:57;;;;;;;5.93;3.03;;;13.00;99.90;;;;;;4134217;28;20547;-94
2023/05/06 01:06:24;;;;;;;6.03;3.40;;;13.10;99.90;;;;;;4150922;28;20169;-94
2023/05/06 01:08:34;;;;;;;10.52;3.35;;;13.10;99.90;;;;;;4134588;28;20197;-92
2023/05/06 01:10:49;;;;;;;7.40;2.95;;;13.10;99.90;;;;;;4150729;28;20183;-92
2023/05/06 01:13:15;;;;;;;9.40;3.10;;;13.10;99.90;;;;;;4150497;28;20220;-92
2023/05/06 01:15:24;;;;;;;7.22;3.22;;;13.20;99.90;;;;;;4134522;28;20531;-93
2023/05/06 01:17:28;;;;;;;4.80;2.65;;;13.20;99.90;;;;;;4150756;28;20184;-92
2023/05/06 01:19:40;;;;;;;5.05;2.78;;;13.30;99.90;;;;;;4150608;28;20169;-93
2023/05/06 01:21:46;;;;;;;6.55;3.38;;;13.20;99.90;;;;;;4150469;28;20269;-93
2023/05/06 01:23:51;;;;;;;4.55;2.17;;;13.10;99.90;;;;;;4150569;28;20208;-94
2023/05/06 01:25:52;;;;;;;5.88;3.10;;;13.00;99.90;;;;;;4150418;28;20173;-93
2023/05/06 01:27:52;;;;;;;6.57;2.88;;;13.00;99.90;;;;;;4134200;28;20821;-92
2023/05/06 01:29:54;;;;;;;4.68;2.70;;;13.00;99.90;;;;;;4134045;28;20177;-92
2023/05/06 01:32:01;;;;;;;6.75;3.00;;;13.00;99.90;;;;;;4133994;28;20209;-96
2023/05/06 01:34:24;;;;;;;5.63;2.65;;;13.10;99.90;;;;;;4133989;28;20228;-92
2023/05/06 01:36:40;;;;;;;7.38;2.75;;;13.10;99.90;;;;;;4134151;28;20190;-94
2023/05/06 01:38:56;;;;;;;5.68;3.17;;;13.00;99.90;;;;;;4150539;28;20206;-93
2023/05/06 01:40:59;;;;;;;4.28;2.85;;;13.00;99.90;;;;;;4133953;28;20169;-92
2023/05/06 01:43:03;;;;;;;5.28;2.65;;;13.00;99.90;;;;;;4166499;28;20218;-93
2023/05/06 01:45:06;;;;;;;9.45;3.10;;;13.00;99.90;;;;;;4133814;28;20192;-93
2023/05/06 01:47:09;;;;;;;6.28;2.90;;;13.00;99.90;;;;;;4150160;28;20699;-95
2023/05/06 01:49:11;;;;;;;4.65;2.75;;;13.00;99.90;;;;;;4134019;28;20174;-94
2023/05/06 01:51:12;;;;;;;6.47;2.92;;;13.00;99.90;;;;;;4150261;28;20180;-94
2023/05/06 01:53:13;;;;;;;5.65;2.88;;;12.90;99.90;;;;;;4150236;28;20263;-94
2023/05/06 01:55:14;;;;;;;6.95;3.08;;;12.90;99.90;;;;;;4150071;28;20244;-96
2023/05/06 01:57:14;;;;;;;9.63;2.92;;;12.80;99.90;;;;;;4134067;28;20252;-91
2023/05/06 01:59:15;;;;;;;4.30;2.83;;;12.80;99.90;;;;;;4133526;28;20165;-95
2023/05/06 02:01:16;;;;;;;8.73;3.20;;;12.90;99.90;;;;;;4149967;28;20177;-94
2023/05/06 02:03:17;;;;;;;7.43;2.95;;;12.90;99.90;;;;;;4149905;28;20176;-94
2023/05/06 02:05:19;;;;;;;7.80;3.28;;;12.80;99.90;;;;;;4133412;28;20251;-93
2023/05/06 02:07:24;;;;;;;5.47;3.00;;;12.80;99.90;;;;;;4149555;28;20235;-92
2023/05/06 02:09:25;;;;;;;5.57;3.22;;;12.70;99.90;;;;;;4149855;28;20180;-93
2023/05/06 02:11:30;;;;;;;5.75;3.22;;;12.70;99.90;;;;;;4150249;28;20165;-93
2023/05/06 02:13:36;;;;;;;8.55;2.85;;;12.70;99.90;;;;;;4149722;28;20200;-92
2023/05/06 02:15:38;;;;;;;9.07;2.92;;;12.70;99.90;;;;;;4133507;28;20169;-92
2023/05/06 02:17:42;;;;;;;4.93;2.90;;;12.80;99.90;;;;;;4133688;28;20181;-92
2023/05/06 02:19:42;;;;;;;8.77;2.58;;;12.80;99.90;;;;;;4149340;28;20223;-92
2023/05/06 02:21:43;;;;;;;5.55;2.67;;;12.90;99.90;;;;;;4133365;28;20174;-95
2023/05/06 02:23:44;;;;;;;4.32;3.08;;;12.90;99.90;;;;;;4133375;28;20197;-93
2023/05/06 02:25:45;;;;;;;5.07;2.97;;;12.90;99.90;;;;;;4149472;28;20192;-94
2023/05/06 02:27:46;;;;;;;6.53;2.97;;;12.90;99.90;;;;;;4149367;28;20171;-92
2023/05/06 02:29:47;;;;;;;6.35;3.03;;;12.90;99.90;;;;;;4133535;28;20174;-92
2023/05/06 02:31:48;;;;;;;5.53;3.00;;;12.90;99.90;;;;;;4133435;28;20209;-92
2023/05/06 02:33:50;;;;;;;8.32;3.25;;;12.80;99.90;;;;;;4149467;28;20257;-92
2023/05/06 02:35:51;;;;;;;5.60;2.88;;;12.90;99.90;;;;;;4149242;28;20185;-93
2023/05/06 02:37:51;;;;;;;5.55;3.05;;;12.80;99.90;;;;;;4133032;28;20158;-91
2023/05/06 02:39:52;;;;;;;8.23;3.03;;;12.80;99.90;;;;;;4133061;28;20182;-93
2023/05/06 02:41:53;;;;;;;6.07;3.13;;;12.80;99.90;;;;;;4133206;28;20204;-92
2023/05/06 02:43:54;;;;;;;8.27;3.50;;;12.80;99.90;;;;;;4149149;28;20657;-92
2023/05/06 02:45:54;;;;;;;8.15;3.22;;;12.80;99.90;;;;;;4132970;28;20714;-92
2023/05/06 02:47:55;;;;;;;9.02;3.10;;;12.80;99.90;;;;;;4133000;28;20181;-94
2023/05/06 02:49:56;;;;;;;8.55;3.60;;;12.70;99.90;;;;;;4149412;28;20177;-93
2023/05/06 02:51:57;;;;;;;6.05;2.97;;;12.70;99.90;;;;;;4133075;28;20213;-93
2023/05/06 02:53:58;;;;;;;5.70;3.10;;;12.70;99.90;;;;;;4149345;28;20589;-92
2023/05/06 02:55:58;;;;;;;9.00;3.55;;;12.60;99.90;;;;;;4132919;28;20193;-94
2023/05/06 02:57:59;;;;;;;10.10;4.07;;;12.60;99.90;;;;;;4148870;28;20216;-93
2023/05/06 03:00:00;;;;;;;9.68;4.35;;;12.60;99.90;;;;;;4133145;28;20177;-93
2023/05/06 03:02:01;;;;;;;9.15;3.88;;;12.60;99.90;;;;;;4132704;28;20174;-93
2023/05/06 03:04:02;;;;;;;10.45;3.95;;;12.60;99.90;;;;;;4148931;28;20185;-95
2023/05/06 03:06:03;;;;;;;11.27;4.82;;;12.60;99.90;;;;;;4132417;28;20174;-93
2023/05/06 03:08:04;;;;;;;11.13;4.78;;;12.50;99.90;;;;;;4132337;28;20182;-93
2023/05/06 03:10:06;;;;;;;10.23;4.68;;;12.50;99.90;;;;;;4148876;28;20168;-92
2023/05/06 03:12:10;;;;;;;13.55;5.13;;;12.60;99.90;;;;;;4132816;28;20748;-94
2023/05/06 03:14:11;;;;;;;8.82;4.30;;;12.40;99.90;;;;;;4132623;28;20553;-94
2023/05/06 03:16:13;;;;;;;11.23;4.57;;;12.50;99.90;;;;;;4132506;28;20169;-94
2023/05/06 03:18:15;;;;;;;10.63;5.57;;;12.50;99.90;;;;;;4148875;28;20212;-93
2023/05/06 03:20:16;;;;;;;11.80;4.53;;;12.40;99.90;;;;;;4148615;28;20172;-93
2023/05/06 03:22:22;;;;;;;15.52;5.38;;;12.50;99.90;;;;;;4133369;28;20213;-93
2023/05/06 03:24:24;;;;;;;11.80;5.65;;;12.40;99.90;;;;;;4132037;28;20193;-95
2023/05/06 03:26:25;;;;;;;7.10;4.18;;;12.40;99.90;;;;;;4132322;28;20197;-92
2023/05/06 03:28:26;;;;;;;11.65;4.95;;;12.30;99.90;;;;;;4132230;28;20618;-93
2023/05/06 03:30:27;;;;;;;8.65;4.22;;;12.40;99.90;;;;;;4132444;28;20185;-93
2023/05/06 03:32:32;;;;;;;13.25;4.95;;;12.30;99.90;;;;;;4132683;28;20288;-92
2023/05/06 03:34:33;;;;;;;11.88;4.68;;;12.30;99.90;;;;;;4132115;28;20284;-92
2023/05/06 03:36:34;;;;;;;11.27;4.60;;;12.20;99.90;;;;;;4132451;28;20602;-94
2023/05/06 03:38:35;;;;;;;10.13;4.57;;;12.20;99.90;;;;;;4148561;28;20199;-93
2023/05/06 03:40:39;;;;;;;12.93;4.72;;;12.20;99.90;;;;;;4132354;28;20178;-92
2023/05/06 03:42:40;;;;;;;9.55;4.68;;;12.30;99.90;;;;;;4148654;28;20172;-93
2023/05/06 03:44:41;;;;;;;11.40;4.68;;;12.20;99.90;;;;;;4132300;28;20208;-93
2023/05/06 03:46:42;;;;;;;9.93;4.35;;;12.20;99.90;;;;;;4132035;28;20208;-94
2023/05/06 03:48:43;;;;;;;7.55;4.18;;;12.30;99.90;;;;;;4148296;28;20164;-95
2023/05/06 03:50:47;;;;;;;11.98;5.38;;;12.30;99.90;;;;;;4132825;28;20581;-93
2023/05/06 03:52:49;;;;;;;9.38;4.55;;;12.30;99.90;;;;;;4132075;28;20217;-92
2023/05/06 03:54:50;;;;;;;13.40;4.47;;;12.30;99.90;;;;;;4132417;28;20647;-95
2023/05/06 03:56:51;;;;;;;10.13;4.53;;;12.30;99.90;;;;;;4132101;28;20626;-93
2023/05/06 03:58:55;;;;;;;10.95;4.50;;;12.30;99.90;;;;;;4148392;28;20187;-93
2023/05/06 04:00:59;;;;;;;9.60;4.53;;;12.30;99.90;;;;;;4132129;28;20191;-93
2023/05/06 04:03:01;;;;;;;13.27;4.93;;;12.40;99.90;;;;;;4131865;28;20205;-92
2023/05/06 04:05:09;;;;;;;8.90;4.60;;;12.40;99.90;;;;;;4148389;28;20200;-94
2023/05/06 04:07:10;;;;;;;10.57;4.90;;;12.50;99.90;;;;;;4148164;28;20622;-93
2023/05/06 04:09:10;;;;;;;10.82;4.95;;;12.50;99.90;;;;;;4131998;28;20266;-93
2023/05/06 04:11:13;;;;;;;10.40;4.93;;;12.40;99.90;;;;;;4131832;28;20173;-92
2023/05/06 04:13:16;;;;;;;13.35;4.50;;;12.50;99.90;;;;;;4147799;28;20645;-92
2023/05/06 04:15:18;;;;;;;10.43;4.40;;;12.40;99.90;;;;;;4131917;28;20260;-94
2023/05/06 04:17:19;;;;;;;12.88;4.25;;;12.50;99.90;;;;;;4148184;28;20243;-93
2023/05/06 04:19:21;;;;;;;9.90;3.95;;;12.50;99.90;;;;;;4131795;28;20169;-93
2023/05/06 04:21:22;;;;;;;9.10;4.30;;;12.50;99.90;;;;;;4131927;28;20676;-95
2023/05/06 04:23:32;;;;;;;12.18;5.00;;;12.50;99.90;;;;;;4133118;28;20252;-92
2023/05/06 04:25:34;;;;;;;8.35;4.38;;;12.50;99.90;;;;;;4148223;28;20712;-93
2023/05/06 04:27:36;;;;;;;8.80;4.32;;;12.50;99.90;;;;;;4148446;28;20212;-93
2023/05/06 04:29:38;;;;;;;9.05;4.75;;;12.50;99.90;;;;;;4147971;28;20179;-93
2023/05/06 04:31:39;;;;;;;7.68;4.05;;;12.50;99.90;;;;;;4131633;28;20205;-92
2023/05/06 04:33:43;;;;;;;9.60;3.78;;;12.50;99.90;;;;;;4132053;28;20243;-95
2023/05/06 04:35:52;;;;;;;13.60;4.70;;;12.50;99.90;;;;;;4132894;28;20180;-92
2023/05/06 04:37:55;;;;;;;12.50;5.13;;;12.60;99.90;;;;;;4134864;28;20173;-92
2023/05/06 04:40:01;;;;;;;8.50;4.07;;;12.60;99.90;;;;;;4135191;28;20173;-95
2023/05/06 04:42:03;;;;;;;10.57;4.28;;;12.60;99.90;;;;;;4135007;28;20169;-93
2023/05/06 04:44:11;;;;;;;9.90;4.55;;;12.60;99.90;;;;;;4135811;28;20193;-92
2023/05/06 04:46:14;;;;;;;14.50;4.68;;;12.60;99.90;;;;;;4135207;28;20192;-92
2023/05/06 04:48:23;;;;;;;9.63;4.43;;;12.70;99.90;;;;;;4151405;28;20181;-95
2023/05/06 04:50:26;;;;;;;11.93;4.60;;;12.70;99.90;;;;;;4135338;28;20267;-95
2023/05/06 04:52:27;;;;;;;11.95;5.63;;;12.70;99.90;;;;;;4134907;28;20304;-92
2023/05/06 04:54:28;;;;;;;12.00;5.68;;;12.70;99.90;;;;;;4151100;28;20207;-93
2023/05/06 04:56:29;;;;;;;16.75;6.60;;;12.70;99.90;;;;;;4135183;28;20181;-93
2023/05/06 04:58:30;;;;;;;16.23;6.72;;;12.80;99.90;;;;;;4134824;28;20174;-93
2023/05/06 05:00:32;;;;;;;15.05;6.05;;;12.90;99.90;;;;;;4134284;28;20178;-93
2023/05/06 05:02:33;;;;;;;18.95;7.35;;;12.90;99.90;;;;;;4150787;28;20255;-95
2023/05/06 05:04:34;;;;;;;14.90;7.03;;;13.00;99.90;;;;;;4134522;28;20244;-95
2023/05/06 05:06:35;;;;;;;16.52;6.97;;;13.10;99.90;;;;;;4150701;28;20169;-96
2023/05/06 05:08:35;;;;;;;19.77;7.70;;;12.90;99.90;;;;;;4150749;28;20189;-95
2023/05/06 05:10:36;;;;;;;17.02;7.22;;;12.90;99.90;;;;;;4150860;28;20657;-95
2023/05/06 05:12:38;;;;;;;17.48;7.05;;;12.90;99.90;;;;;;4134305;28;20245;-95
2023/05/06 05:14:39;;;;;;;18.05;6.90;;;12.90;99.90;;;;;;4134521;28;20276;-96
2023/05/06 05:16:41;;;;;;;22.90;8.43;;;12.90;99.90;;;;;;4134570;28;20185;-96
2023/05/06 05:18:42;;;;;;;21.70;8.43;;;12.90;99.90;;;;;;4134421;28;20166;-94
2023/05/06 05:20:49;;;;;;;22.88;8.70;;;12.90;99.90;;;;;;4151218;28;20566;-95
2023/05/06 05:22:51;;;;;;;19.45;8.18;;;12.90;99.90;;;;;;4134427;28;20169;-94
2023/05/06 05:24:51;;;;;;;25.58;9.57;;;13.00;99.90;;;;;;4150550;28;20621;-95
2023/05/06 05:26:52;;;;;;;23.98;9.30;;;13.00;99.90;;;;;;4150224;28;20629;-95
2023/05/06 05:28:54;;;;;;;21.60;8.90;;;13.10;99.90;;;;;;4150530;28;20565;-95
2023/05/06 05:31:00;;;;;;;27.38;9.07;;;13.10;99.90;;;;;;4134285;28;20185;-94
2023/05/06 05:33:01;;;;;;;19.48;8.77;;;13.10;99.90;;;;;;4150574;28;20224;-94
2023/05/06 05:35:02;;;;;;;24.17;9.13;;;13.30;99.90;;;;;;4150186;28;20244;-96
2023/05/06 05:37:03;;;;;;;20.00;7.93;;;13.30;99.90;;;;;;4150235;28;20172;-96
2023/05/06 05:39:04;;;;;;;22.00;8.02;;;13.30;99.90;;;;;;4134015;28;20680;-95
2023/05/06 05:41:07;;;;;;;19.05;8.52;;;13.50;99.90;;;;;;4134525;28;20713;-96
2023/05/06 05:43:09;;;;;;;22.40;8.18;;;13.60;99.90;;;;;;4150485;28;20385;-96
2023/05/06 05:45:13;;;;;;;23.38;8.77;;;13.60;99.90;;;;;;4150378;28;20168;-96
2023/05/06 05:47:14;;;;;;;19.25;8.30;;;13.80;99.90;;;;;;4133515;28;20197;-95
2023/05/06 05:49:16;;;;;;;23.85;8.45;;;14.00;99.90;;;;;;4133912;28;20177;-95
2023/05/06 05:51:16;;;;;;;18.98;7.80;;;14.10;99.90;;;;;;4133904;28;20527;-95
2023/05/06 05:53:18;;;;;;;23.27;8.85;;;14.20;99.90;;;;;;4133576;28;20300;-96
2023/05/06 05:55:19;;;;;;;20.73;8.10;;;14.00;99.90;;;;;;4133844;28;20170;-95
2023/05/06 05:57:21;;;;;;;21.98;8.55;;;14.10;99.90;;;;;;4133819;28;20272;-96
2023/05/06 05:59:22;;;;;;;18.88;8.25;;;14.00;99.90;;;;;;4149953;28;20181;-95
2023/05/06 06:01:26;;;;;;;19.92;7.93;;;14.20;99.90;;;;;;4133901;28;20184;-95
2023/05/06 06:03:27;;;;;;;21.00;8.70;;;14.30;99.90;;;;;;4149798;28;20177;-95
2023/05/06 06:05:28;;;;;;;19.88;8.60;;;14.30;99.90;;;;;;4149971;28;20304;-95
2023/05/06 06:07:28;;;;;;;20.88;8.23;;;14.30;99.90;;;;;;4133660;28;20189;-95
2023/05/06 06:09:29;;;;;;;17.48;7.70;;;14.30;99.90;;;;;;4133560;28;20240;-95
2023/05/06 06:11:32;;;;;;;21.48;8.35;;;14.40;99.90;;;;;;4149640;28;20260;-96
2023/05/06 06:13:33;;;;;;;17.25;6.80;;;14.50;99.90;;;;;;4133492;28;20268;-95
2023/05/06 06:15:34;;;;;;;17.25;6.57;;;14.60;99.90;;;;;;4149711;28;20177;-95
2023/05/06 06:17:35;;;;;;;12.52;5.95;;;14.70;99.90;;;;;;4133703;28;20659;-96
2023/05/06 06:19:37;;;;;;;14.73;6.30;;;14.70;99.90;;;;;;4149603;28;20268;-95
2023/05/06 06:21:38;;;;;;;11.90;5.22;;;14.70;99.90;;;;;;4149496;28;20205;-94
2023/05/06 06:23:38;;;;;;;17.63;5.55;;;15.00;99.90;;;;;;4133096;28;20185;-95
2023/05/06 06:25:40;;;;;;;12.88;5.60;;;15.10;99.90;;;;;;4133332;28;20260;-96
2023/05/06 06:27:41;;;;;;;10.65;5.07;;;15.20;99.90;;;;;;4133214;28;20256;-95
2023/05/06 06:29:42;;;;;;;15.02;5.70;;;15.30;99.90;;;;;;4133323;28;20210;-96
2023/05/06 06:31:42;;;;;;;14.18;5.47;;;15.60;99.90;;;;;;4149165;28;20169;-96
2023/05/06 06:33:43;;;;;;;12.55;5.00;;;15.50;99.90;;;;;;4133066;28;20204;-95
2023/05/06 06:35:44;;;;;;;11.93;5.70;;;15.80;99.90;;;;;;4149332;28;20177;-94
2023/05/06 06:37:46;;;;;;;10.05;4.82;;;16.00;99.90;;;;;;4149477;28;20225;-96
2023/05/06 06:39:46;;;;;;;11.50;4.80;;;16.20;99.90;;;;;;4133140;28;20608;-96
2023/05/06 06:41:47;;;;;;;10.60;4.68;;;16.20;99.90;;;;;;4149333;28;20165;-95
2023/05/06 06:43:48;;;;;;;13.18;4.65;;;16.30;99.90;;;;;;4149152;28;20665;-96
2023/05/06 06:45:53;;;;;;;8.90;4.45;;;16.60;99.90;;;;;;4133170;28;20567;-95
2023/05/06 06:47:53;;;;;;;13.13;5.10;;;17.00;99.90;;;;;;4132750;28;20240;-96
2023/05/06 06:49:54;;;;;;;14.23;3.92;;;17.10;99.90;;;;;;4148947;28;20161;-95
2023/05/06 06:51:56;;;;;;;10.90;4.35;;;17.40;99.90;;;;;;4132768;28;20309;-96
2023/05/06 06:53:57;;;;;;;9.95;3.80;;;17.80;99.90;;;;;;4132798;28;20213;-94
2023/05/06 06:55:58;;;;;;;7.78;4.15;;;18.20;99.90;;;;;;4149275;28;20169;-95
2023/05/06 06:57:58;;;;;;;10.48;4.10;;;18.30;99.90;;;;;;4132571;28;20170;-95
2023/05/06 06:59:59;;;;;;;10.23;3.92;;;18.40;99.90;;;;;;4148513;28;20181;-95
2023/05/06 07:02:01;;;;;;;10.13;3.83;;;18.60;99.90;;;;;;4132607;28;20183;-95
2023/05/06 07:04:02;;;;;;;13.68;4.40;;;18.70;99.90;;;;;;4148709;28;20209;-95
2023/05/06 07:06:03;;;;;;;9.95;3.97;;;18.80;99.90;;;;;;4148956;28;20172;-95
2023/05/06 07:08:04;;;;;;;15.73;4.50;;;18.90;99.90;;;;;;4132662;28;20188;-96
2023/05/06 07:10:05;;;;;;;10.70;4.47;;;18.80;99.90;;;;;;4132943;28;20162;-96
2023/05/06 07:12:06;;;;;;;10.82;4.45;;;18.70;99.90;;;;;;4149161;28;20212;-94
2023/05/06 07:14:07;;;;;;;8.70;4.43;;;18.60;99.90;;;;;;4148778;28;20627;-93
2023/05/06 07:16:08;;;;;;;8.48;3.80;;;18.70;99.90;;;;;;4132700;28;20549;-95
2023/05/06 07:18:09;;;;;;;11.60;4.18;;;18.60;99.90;;;;;;4132638;28;20166;-95
2023/05/06 07:20:11;;;;;;;9.32;3.88;;;18.40;99.90;;;;;;4165185;28;20180;-96
2023/05/06 07:22:12;;;;;;;11.02;3.80;;;18.10;99.90;;;;;;4132808;28;20212;-96
2023/05/06 07:24:12;;;;;;;10.63;3.78;;;18.30;99.90;;;;;;4148764;28;20193;-94
2023/05/06 07:26:13;;;;;;;8.93;3.40;;;18.10;99.90;;;;;;4132502;28;20177;-96
2023/05/06 07:28:14;;;;;;;9.25;3.80;;;18.20;99.90;;;;;;4148870;28;20173;-96
2023/05/06 07:30:15;;;;;;;7.60;3.95;;;18.10;99.90;;;;;;4132417;28;20181;-95
2023/05/06 07:32:16;;;;;;;11.70;3.83;;;18.30;99.90;;;;;;4132272;28;20205;-95
2023/05/06 07:34:18;;;;;;;11.45;3.95;;;18.60;99.90;;;;;;4132326;28;20280;-94
2023/05/06 07:36:19;;;;;;;12.07;3.67;;;19.10;99.90;;;;;;4132214;28;20173;-96
2023/05/06 07:38:22;;;;;;;7.80;3.25;;;20.10;99.90;;;;;;4132225;28;20592;-95
2023/05/06 07:40:23;;;;;;;12.00;3.35;;;20.40;99.90;;;;;;4132620;28;20170;-95
2023/05/06 07:42:24;;;;;;;7.28;3.03;;;20.90;99.90;;;;;;4132228;28;20519;-92
2023/05/06 07:44:25;;;;;;;8.95;3.40;;;21.80;99.90;;;;;;4132326;28;20181;-95
2023/05/06 07:46:26;;;;;;;8.30;3.40;;;22.70;99.90;;;;;;4148459;28;20276;-96
2023/05/06 07:48:31;;;;;;;9.07;3.30;;;23.20;99.90;;;;;;4132276;28;20673;-96
2023/05/06 07:50:33;;;;;;;11.25;3.20;;;23.60;99.90;;;;;;4132238;28;20192;-96
2023/05/06 07:52:34;;;;;;;6.70;3.33;;;23.20;99.90;;;;;;4132020;28;20209;-95
2023/05/06 07:54:35;;;;;;;8.55;3.30;;;23.70;99.90;;;;;;4132198;28;20192;-96
2023/05/06 07:56:36;;;;;;;5.50;3.05;;;24.10;99.90;;;;;;4132320;28;20173;-94
2023/05/06 07:58:36;;;;;;;7.65;2.92;;;24.60;99.90;;;;;;4148185;28;20177;-95
2023/05/06 08:00:37;;;;;;;15.27;3.28;;;25.90;99.90;;;;;;4131771;28;20265;-96
2023/05/06 08:02:42;;;;;;;7.38;3.25;;;26.80;99.90;;;;;;4148182;28;20176;-96
2023/05/06 08:04:44;;;;;;;10.50;3.50;;;27.00;99.90;;;;;;4132087;28;20276;-96
2023/05/06 08:06:46;;;;;;;6.95;3.00;;;26.90;99.90;;;;;;4148811;28;20168;-96
2023/05/06 08:08:46;;;;;;;5.45;2.38;;;26.90;99.90;;;;;;4132135;28;20244;-95
2023/05/06 08:10:47;;;;;;;7.43;2.42;;;27.40;99.90;;;;;;4148258;28;20173;-96
2023/05/06 08:12:48;;;;;;;8.25;2.95;;;27.60;99.90;;;;;;4132118;28;20304;-96
2023/05/06 08:14:49;;;;;;;8.15;2.72;;;27.80;99.90;;;;;;4147956;28;20290;-93
2023/05/06 08:16:50;;;;;;;7.78;3.08;;;28.20;99.90;;;;;;4131634;28;20185;-95
2023/05/06 08:18:51;;;;;;;6.22;3.25;;;28.50;99.90;;;;;;4148110;28;20561;-93
2023/05/06 08:20:52;;;;;;;5.03;2.85;;;28.50;99.90;;;;;;4147931;28;20173;-93
2023/05/06 08:22:52;;;;;;;6.72;3.08;;;29.30;99.90;;;;;;4131784;28;20184;-94
2023/05/06 08:24:53;;;;;;;6.25;2.80;;;29.80;99.90;;;;;;4147612;28;20196;-94
2023/05/06 08:26:54;;;;;;;5.47;2.95;;;29.70;99.90;;;;;;4131819;28;20187;-93
2023/05/06 08:28:56;;;;;;;5.35;3.20;;;29.90;99.90;;;;;;4148179;28;20263;-95
2023/05/06 08:30:57;;;;;;;4.32;2.50;;;30.20;99.90;;;;;;4131783;28;20635;-92
2023/05/06 08:32:58;;;;;;;8.07;2.90;;;30.30;99.90;;;;;;4131563;28;20227;-91
2023/05/06 08:34:59;;;;;;;9.63;2.80;;;30.00;99.90;;;;;;4147772;28;20192;-93
2023/05/06 08:37:01;;;;;;;7.03;3.03;;;29.90;99.90;;;;;;4131724;28;20176;-93
2023/05/06 08:39:02;;;;;;;7.82;2.88;;;29.90;99.90;;;;;;4131854;28;20176;-94
2023/05/06 08:41:08;;;;;;;7.63;2.92;;;29.80;99.90;;;;;;4131792;28;20173;-93
2023/05/06 08:43:19;;;;;;;7.00;2.53;;;29.90;99.90;;;;;;4148356;28;20196;-92
2023/05/06 08:45:20;;;;;;;5.72;2.78;;;29.50;99.90;;;;;;4147830;28;20181;-94
2023/05/06 08:47:21;;;;;;;5.57;2.75;;;28.70;99.90;;;;;;4131881;28;20693;-94
2023/05/06 08:49:22;;;;;;;6.03;2.72;;;27.40;99.90;;;;;;4131481;28;20169;-96
2023/05/06 08:51:27;;;;;;;6.88;2.58;;;27.00;99.90;;;;;;4131644;28;20599;-96
2023/05/06 08:53:29;;;;;;;5.95;2.78;;;27.20;99.90;;;;;;4131342;28;20256;-95
2023/05/06 08:55:32;;;;;;;6.75;2.58;;;26.40;99.90;;;;;;4131499;28;20273;-95
2023/05/06 08:57:34;;;;;;;8.55;2.63;;;26.20;99.90;;;;;;4131526;28;20177;-96
2023/05/06 08:59:35;;;;;;;8.85;2.55;;;26.10;99.90;;;;;;4147944;28;20173;-96
2023/05/06 09:01:36;;;;;;;7.43;2.90;;;26.10;99.90;;;;;;4147805;28;20177;-95
2023/05/06 09:03:37;;;;;;;5.00;2.78;;;25.90;99.90;;;;;;4131551;28;20547;-95
2023/05/06 09:05:38;;;;;;;7.35;2.88;;;25.80;99.90;;;;;;4131773;28;20184;-95
2023/05/06 09:07:39;;;;;;;6.13;2.70;;;26.40;99.90;;;;;;4148006;28;20177;-96
2023/05/06 09:09:40;;;;;;;5.22;2.85;;;26.30;99.90;;;;;;4131519;28;20240;-95
2023/05/06 09:11:41;;;;;;;5.53;2.60;;;26.00;99.90;;;;;;4147878;28;20576;-96
2023/05/06 09:13:45;;;;;;;7.70;2.72;;;25.90;99.90;;;;;;4131121;28;20883;-95
2023/05/06 09:15:47;;;;;;;8.55;2.30;;;25.70;99.90;;;;;;4147794;28;20263;-96
2023/05/06 09:17:48;;;;;;;6.38;2.53;;;26.00;99.90;;;;;;4131429;28;20169;-96
2023/05/06 09:19:55;;;;;;;7.28;2.72;;;26.10;99.90;;;;;;4147640;28;20181;-93
2023/05/06 09:21:58;;;;;;;10.02;4.30;;;26.30;99.90;;;;;;4132510;28;20286;-95
2023/05/06 09:24:00;;;;;;;9.18;3.92;;;25.70;99.90;;;;;;4134481;28;20197;-95
2023/05/06 09:26:01;;;;;;;12.70;4.50;;;25.40;99.90;;;;;;4134411;28;20283;-94
2023/05/06 09:28:08;;;;;;;11.07;4.38;;;25.50;99.90;;;;;;4134130;28;20181;-96
2023/05/06 09:30:10;;;;;;;10.85;4.00;;;25.60;99.90;;;;;;4150352;28;20173;-96
2023/05/06 09:32:14;;;;;;;8.68;4.60;;;25.40;99.90;;;;;;4151078;28;20204;-95
2023/05/06 09:34:45;;;;;;;;;;;;;;;;;;;;;
2023/05/06 09:37:30;;;;;;;15.77;5.85;;;25.60;99.90;;;;;;4160910;28;20184;-96
2023/05/06 09:40:18;;;;;;;16.55;5.32;;;26.30;99.90;;;;;;4162641;28;20185;-96
2023/05/06 09:42:37;;;;;;;9.38;4.97;;;26.60;99.90;;;;;;4145215;28;20182;-96
2023/05/06 09:45:14;;;;;;;11.63;5.53;;;26.40;99.90;;;;;;4157999;28;20196;-96
2023/05/06 09:47:23;;;;;;;13.73;5.30;;;26.20;99.90;;;;;;4156263;28;20173;-96
2023/05/06 09:49:40;;;;;;;9.98;4.95;;;26.10;99.90;;;;;;4124414;28;20300;-96
2023/05/06 09:52:28;;;;;;;14.38;5.78;;;25.50;99.90;;;;;;4160765;28;20169;-96
2023/05/06 09:54:51;;;;;;;11.60;5.63;;;25.70;99.90;;;;;;4116891;28;20311;-96
2023/05/06 09:56:58;;;;;;;10.82;5.03;;;25.60;99.90;;;;;;4141662;28;20164;-96
2023/05/06 09:59:07;;;;;;;12.45;5.65;;;26.20;99.90;;;;;;4157287;28;20213;-96
2023/05/06 10:04:28;;;;;;;11.30;5.85;;;25.60;99.90;;;;;;4179146;28;20265;-96
2023/05/06 10:06:45;;;;;;;10.55;5.63;;;25.90;99.90;;;;;;4158224;28;20177;-96
2023/05/06 10:09:41;;;;;;;13.23;5.25;;;25.90;99.90;;;;;;4144348;28;20757;-96
2023/05/06 10:11:49;;;;;;;13.88;5.00;;;26.10;99.90;;;;;;4139212;28;20252;-96
2023/05/06 10:13:58;;;;;;;15.02;5.13;;;26.10;99.90;;;;;;4156331;28;20259;-96
2023/05/06 10:16:44;;;;;;;11.40;5.00;;;26.20;99.90;;;;;;4172727;28;20192;-96
2023/05/06 10:19:00;;;;;;;10.27;4.60;;;26.10;99.90;;;;;;4157129;28;20176;-96
2023/05/06 10:21:33;;;;;;;;;;;;;;;;;;;;;
2023/05/06 10:24:05;;;;;;;;;;;;;;;;;;;;;
2023/05/06 10:26:46;;;;;;;9.68;3.85;;;25.30;99.90;;;;;;4165294;28;20387;-96
2023/05/06 10:29:07;;;;;;;11.63;3.65;;;25.40;99.90;;;;;;4157090;28;20196;-96
2023/05/06 10:31:15;;;;;;;9.77;3.58;;;25.30;99.90;;;;;;4159380;28;20168;-96
2023/05/06 10:33:17;;;;;;;6.97;3.55;;;25.40;99.90;;;;;;4155780;28;20209;-96
2023/05/06 10:36:17;;;;;;;;;;;;;;;;;;;;;
2023/05/06 10:39:20;;;;;;;;;;;;;;;;;;;;;
2023/05/06 10:41:24;;;;;;;10.88;4.13;;;24.10;99.90;;;;;;4155435;28;20199;-96
2023/05/06 10:43:42;;;;;;;9.15;3.72;;;24.30;99.90;;;;;;4141169;28;20232;-96
2023/05/06 10:46:05;;;;;;;10.18;4.05;;;24.10;99.90;;;;;;4138368;28;20253;-96
2023/05/06 10:48:21;;;;;;;12.57;4.60;;;24.20;99.90;;;;;;4138363;28;20319;-96
2023/05/06 10:50:23;;;;;;;11.30;5.00;;;24.20;99.90;;;;;;4156604;28;20660;-96
2023/05/06 10:52:30;;;;;;;13.90;7.05;;;24.10;99.90;;;;;;4139231;28;20224;-96